Terminal Aerodrome Forecast
Issued by NWS Columbia, SC

Home | Current Version | Previous Version | Text Only | Print | Product List | Glossary On
Versions: 1 2 3 4 5 6 7 8 9 10 11 12 13 14 15 16 17 18 19 20 21 22 23 24 25 26 27 28 29 30 31 32 33 34 35 36 37 38 39 40 41 42 43 44 45 46 47 48 49
779
FTUS42 KCAE 182053 AAB
TAFAGS
TAF AMD
KAGS 182053Z 1821/1918 10007KT P6SM VCSH OVC035
     FM190200 09003KT P6SM OVC025
     FM190400 07003KT 6SM BR OVC007
     FM191100 07003KT 2SM BR OVC004
      TEMPO 1911/1913 3/4SM BR OVC003
     FM191400 07003KT 4SM BR OVC005=

USA.gov is the U.S. government's official web portal to all federal, state and local government web resources and services.